Time;durP1;ratioP1;P1;durP2;ratioP2;P2;SDS_P1;SDS_P2;PMS_P1;PMS_P2;Temp;Humidity;BMP_temperature;BMP_pressure;BME280_temperature;BME280_humidity;BME280_pressure;Samples;Min_cycle;Max_cycle;Signal;HPM_P1;HPM_P2
2021/11/08 00:02:16;;;;;;;14.57;13.60;;;7.50;99.90;;;;;;4995390;28;20310;-78
2021/11/08 00:04:43;;;;;;;14.77;13.77;;;7.40;99.90;;;;;;4995640;28;20198;-81
2021/11/08 00:07:10;;;;;;;14.67;13.67;;;7.40;99.90;;;;;;4995658;28;20215;-80
2021/11/08 00:09:37;;;;;;;14.77;13.77;;;7.40;99.90;;;;;;4995983;28;20265;-80
2021/11/08 00:12:05;;;;;;;15.07;14.07;;;7.40;99.90;;;;;;4995458;28;20187;-79
2021/11/08 00:14:31;;;;;;;14.50;13.60;;;7.40;99.90;;;;;;4995766;28;20197;-79
2021/11/08 00:17:05;;;;;;;14.80;13.80;;;7.50;99.90;;;;;;4999831;28;20227;-80
2021/11/08 00:22:14;;;;;;;14.27;13.27;;;7.50;99.90;;;;;;4992610;28;20723;-80
2021/11/08 00:24:46;;;;;;;15.10;14.00;;;7.40;99.90;;;;;;4995064;28;20200;-79
2021/11/08 00:27:13;;;;;;;14.70;13.70;;;7.40;99.90;;;;;;4996017;28;20230;-80
2021/11/08 00:29:40;;;;;;;15.00;14.10;;;7.40;99.90;;;;;;4996138;28;20200;-80
2021/11/08 00:32:08;;;;;;;15.40;14.30;;;7.40;99.90;;;;;;4996406;28;20203;-81
2021/11/08 00:34:37;;;;;;;15.03;14.03;;;7.40;99.90;;;;;;4994243;28;20210;-80
2021/11/08 00:37:04;;;;;;;14.43;13.53;;;7.40;99.90;;;;;;4994064;28;20296;-79
2021/11/08 00:39:31;;;;;;;14.77;13.70;;;7.30;99.90;;;;;;4994166;28;20210;-78
2021/11/08 00:41:58;;;;;;;15.23;14.23;;;7.40;99.90;;;;;;4995470;28;20576;-79
2021/11/08 00:44:25;;;;;;;14.40;13.50;;;7.30;99.90;;;;;;4994070;28;20204;-80
2021/11/08 00:46:52;;;;;;;14.80;13.83;;;7.30;99.90;;;;;;4994387;28;20718;-80
2021/11/08 00:49:19;;;;;;;15.03;13.93;;;7.30;99.90;;;;;;4994250;28;20331;-80
2021/11/08 00:51:48;;;;;;;15.10;14.00;;;7.40;99.90;;;;;;4994722;28;20203;-80
2021/11/08 00:54:16;;;;;;;15.03;14.13;;;7.30;99.90;;;;;;4995793;28;20217;-79
2021/11/08 00:56:46;;;;;;;14.90;13.90;;;7.30;99.90;;;;;;4995164;28;20218;-80
2021/11/08 00:59:15;;;;;;;14.77;13.77;;;7.30;99.90;;;;;;4995067;28;20246;-82
2021/11/08 01:01:42;;;;;;;14.47;13.57;;;7.30;99.90;;;;;;4995321;28;20700;-78
2021/11/08 01:04:10;;;;;;;15.03;14.10;;;7.30;99.90;;;;;;4993874;28;20209;-79
2021/11/08 01:06:37;;;;;;;15.03;13.93;;;7.20;99.90;;;;;;4993888;28;20226;-79
2021/11/08 01:09:05;;;;;;;15.50;14.40;;;7.30;99.90;;;;;;4994842;28;20204;-79
2021/11/08 01:11:32;;;;;;;16.00;14.90;;;7.20;99.90;;;;;;4994688;28;20285;-78
2021/11/08 01:13:59;;;;;;;16.47;15.27;;;7.20;99.90;;;;;;4993076;28;20262;-79
2021/11/08 01:16:26;;;;;;;15.80;14.70;;;7.20;99.90;;;;;;4997341;28;20236;-78
2021/11/08 01:18:54;;;;;;;17.03;15.70;;;7.20;99.90;;;;;;4992242;28;20215;-77
2021/11/08 01:21:22;;;;;;;16.23;15.03;;;7.20;99.90;;;;;;4993459;28;20209;-78
2021/11/08 01:23:49;;;;;;;16.47;15.27;;;7.30;99.90;;;;;;4992249;28;20295;-78
2021/11/08 01:26:18;;;;;;;16.97;15.77;;;7.30;99.90;;;;;;4993336;28;20230;-76
2021/11/08 01:28:47;;;;;;;16.00;14.80;;;7.20;99.90;;;;;;4993149;28;20214;-78
2021/11/08 01:31:16;;;;;;;16.57;15.37;;;7.30;99.90;;;;;;4993351;28;20208;-78
2021/11/08 01:33:47;;;;;;;16.33;15.20;;;7.30;99.90;;;;;;4993351;28;20660;-78
2021/11/08 01:36:17;;;;;;;16.57;15.57;;;7.30;99.90;;;;;;4993214;28;20277;-79
2021/11/08 01:38:47;;;;;;;16.10;14.90;;;7.30;99.90;;;;;;4991849;28;20270;-78
2021/11/08 01:41:20;;;;;;;16.43;15.33;;;7.30;99.90;;;;;;4991960;28;20208;-77
2021/11/08 01:43:49;;;;;;;15.17;13.97;;;7.30;99.90;;;;;;4991483;28;20218;-78
2021/11/08 01:46:16;;;;;;;15.93;14.90;;;7.30;99.90;;;;;;4997565;28;20261;-78
2021/11/08 01:48:43;;;;;;;16.80;15.67;;;7.30;99.90;;;;;;4991625;28;20197;-78
2021/11/08 01:51:10;;;;;;;15.03;13.97;;;7.30;99.90;;;;;;4991484;28;20230;-78
2021/11/08 01:53:38;;;;;;;16.00;14.90;;;7.30;99.90;;;;;;4991773;28;20203;-78
2021/11/08 01:56:06;;;;;;;15.43;14.43;;;7.30;99.90;;;;;;4993004;28;20226;-78
2021/11/08 01:58:34;;;;;;;15.80;14.80;;;7.30;99.90;;;;;;4991313;28;20296;-78
2021/11/08 02:01:05;;;;;;;15.50;14.50;;;7.30;99.90;;;;;;4992734;28;20726;-79
2021/11/08 02:03:32;;;;;;;14.90;13.87;;;7.20;99.90;;;;;;4991423;28;20213;-78
2021/11/08 02:05:59;;;;;;;15.37;14.37;;;7.20;99.90;;;;;;4991387;28;20288;-78
2021/11/08 02:08:27;;;;;;;14.97;13.90;;;7.10;99.90;;;;;;4991085;28;20571;-78
2021/11/08 02:10:55;;;;;;;15.30;14.20;;;7.00;99.90;;;;;;4992654;28;20209;-79
2021/11/08 02:13:23;;;;;;;15.10;14.10;;;6.90;99.90;;;;;;4991561;28;20240;-78
2021/11/08 02:15:50;;;;;;;14.93;14.03;;;6.90;99.90;;;;;;4990304;28;20230;-78
2021/11/08 02:18:20;;;;;;;15.93;14.67;;;6.80;99.90;;;;;;4997676;28;20209;-78
2021/11/08 02:20:49;;;;;;;15.50;14.50;;;6.80;99.90;;;;;;4992813;28;20189;-78
2021/11/08 02:23:18;;;;;;;14.93;14.03;;;6.80;99.90;;;;;;4992647;28;20213;-78
2021/11/08 02:25:47;;;;;;;15.50;14.40;;;6.70;99.90;;;;;;4992314;28;20241;-78
2021/11/08 02:28:14;;;;;;;16.20;15.10;;;6.70;99.90;;;;;;4992709;28;20199;-78
2021/11/08 02:30:42;;;;;;;16.37;15.17;;;6.60;99.90;;;;;;4992315;28;20672;-78
2021/11/08 02:33:12;;;;;;;16.60;15.40;;;6.60;99.90;;;;;;4991115;28;20201;-79
2021/11/08 02:35:39;;;;;;;16.17;15.17;;;6.50;99.90;;;;;;4992326;28;20723;-77
2021/11/08 02:38:11;;;;;;;15.40;14.40;;;6.40;99.90;;;;;;4990801;28;20212;-78
2021/11/08 02:40:40;;;;;;;15.27;14.23;;;6.30;99.90;;;;;;4992285;28;20197;-78
2021/11/08 02:43:07;;;;;;;15.03;13.97;;;6.30;99.90;;;;;;4990812;28;20221;-77
2021/11/08 02:45:35;;;;;;;14.60;13.60;;;6.20;99.90;;;;;;4992430;28;20218;-78
2021/11/08 02:48:03;;;;;;;15.40;14.40;;;6.20;99.90;;;;;;4992066;28;20201;-77
2021/11/08 02:50:32;;;;;;;15.23;14.23;;;6.10;99.90;;;;;;4992112;28;20205;-78
2021/11/08 02:53:00;;;;;;;15.03;14.13;;;6.10;99.90;;;;;;4991053;28;20202;-78
2021/11/08 02:55:29;;;;;;;16.60;15.30;;;6.00;99.90;;;;;;4991028;28;20717;-78
2021/11/08 02:57:57;;;;;;;15.67;14.57;;;6.00;99.90;;;;;;4991990;28;20204;-78
2021/11/08 03:00:25;;;;;;;15.90;14.90;;;5.90;99.90;;;;;;4991124;28;20256;-77
2021/11/08 03:02:52;;;;;;;16.27;15.17;;;5.80;99.90;;;;;;4991730;28;20702;-78
2021/11/08 03:05:30;;;;;;;15.67;14.60;;;5.70;99.90;;;;;;4987026;28;20295;-78
2021/11/08 03:07:57;;;;;;;16.73;15.60;;;5.60;99.90;;;;;;4987532;28;20197;-78
2021/11/08 03:10:26;;;;;;;16.93;15.83;;;5.50;99.90;;;;;;4992092;28;20216;-76
2021/11/08 03:12:57;;;;;;;15.03;14.13;;;5.40;99.90;;;;;;4990935;28;20193;-78
2021/11/08 03:15:43;;;;;;;15.77;14.60;;;5.30;99.90;;;;;;4990910;28;20594;-77
2021/11/08 03:18:14;;;;;;;16.37;15.10;;;5.30;99.90;;;;;;4985387;28;20272;-78
2021/11/08 03:20:41;;;;;;;15.43;14.37;;;5.10;99.90;;;;;;4992676;28;20233;-78
2021/11/08 03:23:10;;;;;;;17.07;15.73;;;5.00;99.90;;;;;;4995419;28;20228;-78
2021/11/08 03:25:43;;;;;;;16.83;15.43;;;5.00;99.90;;;;;;4995837;28;20230;-78
2021/11/08 03:28:13;;;;;;;16.13;15.03;;;4.90;99.90;;;;;;4994353;28;20671;-78
2021/11/08 03:30:43;;;;;;;16.27;15.17;;;4.90;99.90;;;;;;4995325;28;20277;-77
2021/11/08 03:33:11;;;;;;;15.97;14.90;;;4.80;99.90;;;;;;4995607;28;20201;-78
2021/11/08 03:35:39;;;;;;;15.67;14.60;;;4.70;99.90;;;;;;4995442;28;20231;-78
2021/11/08 03:38:08;;;;;;;15.80;14.70;;;4.60;99.90;;;;;;4993847;28;20224;-77
2021/11/08 03:40:39;;;;;;;15.47;14.47;;;4.60;99.90;;;;;;4995161;28;20201;-77
2021/11/08 03:43:10;;;;;;;16.23;15.13;;;4.60;99.90;;;;;;5001287;28;20468;-79
2021/11/08 03:45:41;;;;;;;17.43;16.23;;;4.60;99.90;;;;;;5006696;28;20592;-80
2021/11/08 03:48:10;;;;;;;16.97;15.73;;;4.50;99.90;;;;;;4990233;28;20648;-79
2021/11/08 03:50:37;;;;;;;17.37;16.07;;;4.50;99.90;;;;;;4993046;28;20448;-78
2021/11/08 03:53:04;;;;;;;16.97;15.87;;;4.50;99.90;;;;;;5002760;28;20447;-78
2021/11/08 03:55:31;;;;;;;18.00;16.60;;;4.40;99.90;;;;;;4994055;28;20279;-78
2021/11/08 03:57:58;;;;;;;16.70;15.50;;;4.40;99.90;;;;;;5012663;28;20712;-80
2021/11/08 04:00:27;;;;;;;17.03;15.83;;;4.30;99.90;;;;;;5012652;28;20205;-78
2021/11/08 04:02:58;;;;;;;16.70;15.40;;;4.30;99.90;;;;;;5007753;28;20243;-78
2021/11/08 04:05:28;;;;;;;16.90;15.80;;;4.30;99.90;;;;;;4991087;28;20709;-79
2021/11/08 04:07:56;;;;;;;16.80;15.50;;;4.20;99.90;;;;;;4993605;28;21048;-78
2021/11/08 04:10:23;;;;;;;16.83;15.60;;;4.10;99.90;;;;;;4994955;28;20440;-76
2021/11/08 04:12:53;;;;;;;18.07;16.67;;;4.20;99.90;;;;;;4987062;28;20475;-77
2021/11/08 04:15:25;;;;;;;17.33;15.90;;;4.10;99.90;;;;;;4994882;28;20981;-77
2021/11/08 04:17:52;;;;;;;16.50;15.40;;;4.20;99.90;;;;;;4985620;28;20977;-78
2021/11/08 04:20:25;;;;;;;16.77;15.50;;;4.20;99.90;;;;;;5000187;28;20451;-78
2021/11/08 04:22:54;;;;;;;16.97;15.73;;;4.20;99.90;;;;;;4999891;28;20225;-75
2021/11/08 04:25:23;;;;;;;17.40;16.20;;;4.20;99.90;;;;;;4993606;28;20233;-78
2021/11/08 04:27:51;;;;;;;18.13;16.73;;;4.20;99.90;;;;;;4994170;28;20436;-78
2021/11/08 04:30:18;;;;;;;18.80;17.30;;;4.20;99.90;;;;;;4990104;28;20535;-77
2021/11/08 04:32:51;;;;;;;18.87;17.50;;;4.20;99.90;;;;;;4994149;28;20201;-77
2021/11/08 04:35:25;;;;;;;18.37;16.87;;;4.30;99.90;;;;;;4994481;28;20221;-78
2021/11/08 04:38:09;;;;;;;18.23;17.00;;;4.40;99.90;;;;;;4993315;28;20453;-77
2021/11/08 04:40:41;;;;;;;19.57;17.97;;;4.40;99.90;;;;;;4993084;28;20452;-78
2021/11/08 04:43:12;;;;;;;19.97;18.10;;;4.50;99.90;;;;;;4994154;28;20299;-78
2021/11/08 04:48:57;;;;;;;18.40;17.00;;;4.70;99.90;;;;;;5094451;27;21070;-79
2021/11/08 04:51:33;;;;;;;19.40;17.90;;;4.70;99.90;;;;;;5094367;28;20259;-79
2021/11/08 04:54:10;;;;;;;19.37;17.97;;;4.80;99.90;;;;;;5088115;28;20189;-79
2021/11/08 04:57:07;;;;;;;19.03;17.73;;;4.80;99.90;;;;;;5096195;28;20277;-77
2021/11/08 05:24:34;;;;;;;19.63;18.33;;;5.00;99.90;;;;;;5034074;28;20195;-80
2021/11/08 05:29:58;;;;;;;19.40;17.90;;;4.90;99.90;;;;;;5046428;28;20421;-80
2021/11/08 05:32:28;;;;;;;18.73;17.50;;;4.90;99.90;;;;;;5055959;28;20225;-77
2021/11/08 05:34:55;;;;;;;19.77;18.17;;;4.80;99.90;;;;;;5043979;28;20199;-80
2021/11/08 05:37:23;;;;;;;18.43;17.23;;;4.80;99.90;;;;;;5046604;28;20699;-80
2021/11/08 05:39:53;;;;;;;18.97;17.67;;;4.70;99.90;;;;;;5038298;28;20203;-80
2021/11/08 05:42:21;;;;;;;18.87;17.53;;;4.60;99.90;;;;;;5045239;28;20222;-78
2021/11/08 05:44:49;;;;;;;18.40;17.10;;;4.50;99.90;;;;;;5049936;28;20480;-78
2021/11/08 05:47:16;;;;;;;18.47;17.17;;;4.60;99.90;;;;;;5048708;28;20212;-78
2021/11/08 05:49:45;;;;;;;18.07;16.67;;;4.50;99.90;;;;;;5036735;28;20238;-78
2021/11/08 05:52:13;;;;;;;18.57;17.27;;;4.40;99.90;;;;;;5043089;28;20505;-80
2021/11/08 05:54:42;;;;;;;18.90;17.40;;;4.30;99.90;;;;;;5047999;28;20533;-80
2021/11/08 05:57:38;;;;;;;18.00;16.80;;;4.30;99.90;;;;;;5047695;28;20290;-79
2021/11/08 06:49:53;;;;;;;19.67;18.17;;;4.60;99.90;;;;;;5026273;28;20195;-80
2021/11/08 06:52:21;;;;;;;18.83;17.50;;;4.60;99.90;;;;;;5026809;28;20240;-80
2021/11/08 06:54:49;;;;;;;17.93;16.57;;;4.60;99.90;;;;;;5026129;28;20200;-79
2021/11/08 06:57:18;;;;;;;20.03;18.53;;;4.60;99.90;;;;;;5032790;28;20660;-79
2021/11/08 06:59:50;;;;;;;17.73;16.47;;;4.70;99.90;;;;;;5030940;28;20436;-79
2021/11/08 07:02:19;;;;;;;19.00;17.43;;;4.70;99.90;;;;;;5022142;28;20228;-80
2021/11/08 07:04:46;;;;;;;19.03;17.43;;;4.70;99.90;;;;;;5031732;28;20204;-79
2021/11/08 07:07:14;;;;;;;18.20;16.90;;;4.70;99.90;;;;;;5019459;28;20262;-79
2021/11/08 07:09:41;;;;;;;18.07;16.63;;;4.60;99.90;;;;;;5027640;28;20196;-79
2021/11/08 07:12:11;;;;;;;17.90;16.63;;;4.60;99.90;;;;;;5029411;28;20223;-79
2021/11/08 07:14:39;;;;;;;18.13;16.93;;;4.70;99.90;;;;;;5036010;28;20204;-79
2021/11/08 07:17:07;;;;;;;18.83;17.30;;;4.80;99.90;;;;;;5032908;28;20196;-79
2021/11/08 07:19:34;;;;;;;17.80;16.67;;;4.90;99.90;;;;;;5015630;28;20211;-79
2021/11/08 07:22:02;;;;;;;17.90;16.70;;;4.90;99.90;;;;;;5034104;28;20218;-79
2021/11/08 07:24:29;;;;;;;17.73;16.57;;;5.00;99.90;;;;;;5031715;28;20196;-79
2021/11/08 07:26:56;;;;;;;18.37;17.17;;;5.10;99.90;;;;;;5026282;28;20192;-80
2021/11/08 07:29:25;;;;;;;18.30;17.10;;;5.20;99.90;;;;;;5033759;28;20534;-79
2021/11/08 07:31:53;;;;;;;17.97;16.80;;;5.30;99.90;;;;;;5024404;28;20239;-79
2021/11/08 07:34:21;;;;;;;16.27;15.07;;;5.20;99.90;;;;;;5033441;28;20661;-79
2021/11/08 07:36:48;;;;;;;15.97;14.97;;;5.10;99.90;;;;;;5029546;28;20332;-80
2021/11/08 07:39:17;;;;;;;16.00;14.90;;;5.10;99.90;;;;;;5023786;28;20200;-79
2021/11/08 07:41:44;;;;;;;15.57;14.53;;;5.00;99.90;;;;;;5030070;28;20219;-79
2021/11/08 07:44:10;;;;;;;15.30;14.30;;;5.00;99.90;;;;;;5032935;28;20200;-79
2021/11/08 07:46:38;;;;;;;15.67;14.40;;;5.00;99.90;;;;;;5032368;28;20204;-79
2021/11/08 07:49:05;;;;;;;15.87;14.77;;;4.90;99.90;;;;;;5029023;28;20216;-79
2021/11/08 07:51:33;;;;;;;16.10;15.00;;;5.00;99.90;;;;;;5023630;28;20240;-79
2021/11/08 07:54:00;;;;;;;15.63;14.53;;;5.10;99.90;;;;;;5023647;28;20250;-79
2021/11/08 07:56:27;;;;;;;15.70;14.67;;;5.30;99.90;;;;;;5031698;28;20254;-79
2021/11/08 07:58:54;;;;;;;16.83;15.63;;;5.50;99.90;;;;;;5029705;28;20264;-79
2021/11/08 08:01:21;;;;;;;16.70;15.50;;;5.80;99.90;;;;;;5029330;28;20704;-79
2021/11/08 08:03:49;;;;;;;18.87;17.47;;;6.20;99.90;;;;;;5030408;28;20223;-79
2021/11/08 08:06:17;;;;;;;17.23;15.93;;;6.50;99.90;;;;;;5031851;28;20207;-79
2021/11/08 08:08:49;;;;;;;9.50;8.60;;;6.90;99.90;;;;;;5032449;28;20258;-79
2021/11/08 08:11:16;;;;;;;10.37;9.57;;;7.10;99.90;;;;;;5031741;28;20236;-78
2021/11/08 08:13:43;;;;;;;11.80;11.00;;;7.30;99.90;;;;;;5029005;28;20809;-79
2021/11/08 08:16:14;;;;;;;12.47;11.67;;;7.40;99.90;;;;;;5032704;28;20571;-79
2021/11/08 08:18:43;;;;;;;7.47;6.87;;;7.60;99.90;;;;;;5030674;28;20683;-79
2021/11/08 08:21:10;;;;;;;15.33;14.43;;;7.60;99.90;;;;;;5031870;28;20732;-79
2021/11/08 08:23:38;;;;;;;14.37;13.47;;;7.60;99.90;;;;;;5032219;28;20620;-79
2021/11/08 08:26:06;;;;;;;14.17;13.27;;;7.60;99.90;;;;;;5032372;28;20197;-79
2021/11/08 08:28:33;;;;;;;9.43;8.83;;;7.70;99.90;;;;;;5024340;28;20213;-78
2021/11/08 08:31:00;;;;;;;12.67;11.73;;;7.60;99.90;;;;;;5024298;28;20245;-79
2021/11/08 08:33:28;;;;;;;13.70;12.80;;;7.60;99.90;;;;;;5032555;28;20190;-78
2021/11/08 08:35:55;;;;;;;13.83;12.73;;;7.90;99.90;;;;;;5029044;28;20253;-78
2021/11/08 08:38:22;;;;;;;15.00;13.90;;;8.00;99.90;;;;;;5027805;28;20251;-78
2021/11/08 08:40:51;;;;;;;13.33;12.50;;;7.80;99.90;;;;;;5028910;28;20223;-79
2021/11/08 08:43:21;;;;;;;12.30;11.27;;;7.80;99.90;;;;;;5025004;28;20206;-79
2021/11/08 08:45:48;;;;;;;14.67;13.67;;;7.90;99.90;;;;;;5016732;28;20675;-79
2021/11/08 08:48:15;;;;;;;14.47;13.57;;;7.80;99.90;;;;;;5026764;28;20218;-79
2021/11/08 08:50:43;;;;;;;15.63;14.47;;;7.70;99.90;;;;;;5028522;28;20275;-79
2021/11/08 08:53:11;;;;;;;6.40;5.80;;;7.70;99.90;;;;;;5022502;28;20366;-79
2021/11/08 08:55:39;;;;;;;7.57;6.87;;;7.70;99.90;;;;;;5027509;28;20297;-79
2021/11/08 08:58:07;;;;;;;7.47;6.07;;;7.70;99.90;;;;;;5028562;28;20200;-79
2021/11/08 09:00:36;;;;;;;7.37;6.10;;;7.80;99.90;;;;;;5032977;28;20256;-79
2021/11/08 09:03:04;;;;;;;10.30;9.47;;;7.80;99.90;;;;;;5026503;28;20227;-78
2021/11/08 09:05:31;;;;;;;13.23;12.23;;;7.80;99.90;;;;;;5018774;28;20198;-78
2021/11/08 09:07:58;;;;;;;14.70;13.80;;;7.90;99.90;;;;;;5031552;28;20243;-79
2021/11/08 09:10:27;;;;;;;15.20;14.13;;;7.90;99.90;;;;;;5031465;28;20202;-79
2021/11/08 09:12:55;;;;;;;9.13;8.43;;;7.90;99.90;;;;;;5022510;28;20624;-79
2021/11/08 09:15:24;;;;;;;8.20;7.40;;;7.90;99.90;;;;;;5032578;28;20195;-78
2021/11/08 09:17:52;;;;;;;6.13;5.53;;;7.90;99.90;;;;;;5026715;28;20192;-78
2021/11/08 09:20:20;;;;;;;6.37;5.67;;;8.00;99.90;;;;;;5029095;28;20242;-78
2021/11/08 09:22:50;;;;;;;8.57;7.83;;;8.00;99.90;;;;;;5030037;28;20218;-78
2021/11/08 09:25:18;;;;;;;12.37;11.60;;;7.90;99.90;;;;;;5028589;28;20258;-78
2021/11/08 09:27:47;;;;;;;6.50;5.90;;;8.00;99.90;;;;;;5028549;28;20269;-79
2021/11/08 09:30:16;;;;;;;6.97;6.37;;;8.20;99.90;;;;;;5030573;28;20199;-78
2021/11/08 09:32:44;;;;;;;5.47;4.97;;;8.20;99.90;;;;;;5030225;28;20227;-78
2021/11/08 09:35:13;;;;;;;6.20;5.60;;;8.20;99.90;;;;;;5035093;28;20625;-79
2021/11/08 09:37:43;;;;;;;12.83;11.93;;;8.30;99.90;;;;;;5034132;28;20220;-79
2021/11/08 09:40:12;;;;;;;8.37;7.67;;;8.30;99.90;;;;;;5031334;28;20195;-79
2021/11/08 09:42:40;;;;;;;10.07;9.27;;;8.50;99.90;;;;;;5035675;28;20226;-78
2021/11/08 09:45:08;;;;;;;7.57;6.83;;;8.60;99.90;;;;;;5032543;28;20202;-79
2021/11/08 09:47:36;;;;;;;7.87;7.07;;;8.50;99.90;;;;;;5035285;28;20257;-78
2021/11/08 09:50:06;;;;;;;8.50;6.53;;;8.50;99.90;;;;;;5036582;28;20209;-79
2021/11/08 09:52:38;;;;;;;7.83;7.00;;;8.30;99.90;;;;;;5032820;28;20292;-78
2021/11/08 09:55:08;;;;;;;6.27;5.53;;;8.40;99.90;;;;;;5032779;28;20210;-78
2021/11/08 09:57:35;;;;;;;8.80;8.03;;;8.50;99.90;;;;;;5033179;28;20215;-79
2021/11/08 10:00:14;;;;;;;13.43;12.50;;;8.60;99.90;;;;;;5033947;28;20202;-79
2021/11/08 10:02:47;;;;;;;7.77;7.07;;;8.70;99.90;;;;;;5025727;28;20231;-78
2021/11/08 10:05:14;;;;;;;6.07;5.37;;;8.80;99.90;;;;;;5026143;28;20205;-79
2021/11/08 10:07:42;;;;;;;8.17;6.40;;;8.80;99.90;;;;;;5034064;28;20202;-79
2021/11/08 10:10:10;;;;;;;10.23;9.43;;;8.90;99.90;;;;;;5022721;28;20204;-78
2021/11/08 10:12:37;;;;;;;12.37;11.57;;;8.90;99.90;;;;;;5034961;28;20222;-78
2021/11/08 10:15:05;;;;;;;14.27;13.30;;;9.00;99.90;;;;;;5030426;28;20200;-78
2021/11/08 10:17:32;;;;;;;13.87;12.83;;;9.00;99.90;;;;;;5023104;28;20204;-78
2021/11/08 10:19:59;;;;;;;13.40;12.40;;;9.10;99.90;;;;;;5033476;28;20199;-78
2021/11/08 10:22:27;;;;;;;7.47;6.77;;;9.20;99.90;;;;;;5024902;28;20219;-79
2021/11/08 10:25:01;;;;;;;8.30;7.27;;;9.10;99.90;;;;;;5030203;28;20193;-79
2021/11/08 10:27:41;;;;;;;8.13;7.33;;;9.10;99.90;;;;;;5031795;28;20275;-78
2021/11/08 10:30:08;;;;;;;9.17;7.87;;;9.00;99.90;;;;;;5026310;28;20215;-78
2021/11/08 10:32:35;;;;;;;14.53;13.43;;;8.90;99.90;;;;;;5030635;28;20219;-79
2021/11/08 10:35:04;;;;;;;8.30;7.27;;;8.90;99.90;;;;;;5029786;28;20257;-79
2021/11/08 10:37:32;;;;;;;12.10;11.20;;;8.90;99.90;;;;;;5031305;28;20199;-79
2021/11/08 10:40:01;;;;;;;11.63;10.73;;;8.90;99.90;;;;;;5030871;28;20189;-79
2021/11/08 10:42:30;;;;;;;9.23;6.47;;;8.90;99.90;;;;;;5032460;28;20224;-79
2021/11/08 10:44:58;;;;;;;12.87;9.17;;;8.90;99.90;;;;;;5033279;28;20195;-79
2021/11/08 10:47:28;;;;;;;15.10;13.80;;;8.80;99.90;;;;;;5021489;28;20254;-79
2021/11/08 10:49:56;;;;;;;10.47;7.47;;;8.70;99.90;;;;;;5034279;28;20246;-79
2021/11/08 10:52:27;;;;;;;8.33;6.97;;;8.60;99.90;;;;;;5034744;28;20215;-80
2021/11/08 10:54:55;;;;;;;13.67;12.60;;;8.70;99.90;;;;;;5013564;28;20649;-80
2021/11/08 10:57:26;;;;;;;8.53;7.80;;;8.80;99.90;;;;;;5012887;28;20672;-79
2021/11/08 10:59:55;;;;;;;10.30;9.33;;;8.90;99.90;;;;;;5012923;28;20196;-79
2021/11/08 11:02:25;;;;;;;14.33;13.23;;;9.00;99.90;;;;;;5057503;22;20228;-78
2021/11/08 11:04:56;;;;;;;10.87;5.33;;;9.00;99.90;;;;;;5038845;28;20668;-78
2021/11/08 11:07:25;;;;;;;16.17;14.20;;;9.00;99.90;;;;;;5052708;28;20641;-78
2021/11/08 11:10:01;;;;;;;9.30;7.30;;;9.20;99.90;;;;;;5041920;28;20231;-77
2021/11/08 11:12:30;;;;;;;12.67;10.47;;;9.20;99.90;;;;;;5038253;28;20604;-76
2021/11/08 11:14:59;;;;;;;14.23;8.30;;;9.30;99.90;;;;;;5045597;28;20736;-77
2021/11/08 11:17:27;;;;;;;12.40;7.03;;;9.30;99.90;;;;;;5055252;28;20211;-79
2021/11/08 11:20:05;;;;;;;8.97;5.83;;;9.20;99.90;;;;;;5041526;28;20612;-78
2021/11/08 11:22:33;;;;;;;7.20;4.23;;;9.20;99.90;;;;;;5042111;28;20280;-78
2021/11/08 11:25:01;;;;;;;10.50;9.33;;;9.20;99.90;;;;;;5039255;28;20279;-78
2021/11/08 11:27:37;;;;;;;11.97;5.10;;;9.30;99.90;;;;;;5045265;28;20187;-77
2021/11/08 11:30:13;;;;;;;12.87;11.50;;;9.30;99.90;;;;;;5035270;28;20214;-78
2021/11/08 11:32:40;;;;;;;11.40;5.23;;;9.40;99.90;;;;;;5045975;28;20294;-78
2021/11/08 11:35:12;;;;;;;13.70;9.63;;;9.40;99.90;;;;;;5040983;28;20644;-79
2021/11/08 11:37:39;;;;;;;15.17;6.33;;;9.50;99.90;;;;;;5044893;28;20602;-77
2021/11/08 11:40:09;;;;;;;17.00;13.00;;;9.70;99.90;;;;;;5036623;28;20250;-79
2021/11/08 11:42:48;;;;;;;14.00;12.60;;;9.80;99.90;;;;;;5055116;28;20227;-79
2021/11/08 11:45:15;;;;;;;13.60;12.37;;;10.00;99.90;;;;;;5039470;28;20261;-78
2021/11/08 11:47:42;;;;;;;14.03;12.70;;;10.10;99.90;;;;;;5043693;28;20217;-77
2021/11/08 11:50:10;;;;;;;15.03;13.40;;;10.20;99.90;;;;;;5042965;28;20258;-79
2021/11/08 11:52:41;;;;;;;13.83;12.73;;;10.30;99.90;;;;;;5040288;28;20707;-78
2021/11/08 11:55:08;;;;;;;13.97;12.77;;;10.20;99.90;;;;;;5043536;28;20196;-79
2021/11/08 11:57:35;;;;;;;14.50;12.73;;;10.20;99.90;;;;;;5042837;28;20381;-77
2021/11/08 12:00:05;;;;;;;14.33;12.67;;;10.20;99.90;;;;;;5046916;28;20253;-78
2021/11/08 12:02:38;;;;;;;13.90;12.57;;;10.10;99.90;;;;;;5045177;28;20231;-76
2021/11/08 12:05:06;;;;;;;12.90;11.90;;;10.20;99.90;;;;;;5045155;28;20202;-78
2021/11/08 12:07:34;;;;;;;13.73;12.67;;;10.20;99.90;;;;;;5044601;28;20211;-78
2021/11/08 12:10:03;;;;;;;13.87;12.57;;;10.30;99.90;;;;;;5034989;28;20223;-77
2021/11/08 12:12:30;;;;;;;13.47;12.27;;;10.40;99.90;;;;;;5032173;28;20254;-77
2021/11/08 12:15:05;;;;;;;14.73;12.93;;;10.40;99.90;;;;;;5048109;28;20226;-78
2021/11/08 12:17:38;;;;;;;8.80;4.73;;;10.40;99.90;;;;;;5037759;28;20203;-79
2021/11/08 12:20:08;;;;;;;9.10;5.40;;;10.40;99.90;;;;;;5045171;28;20191;-78
2021/11/08 12:22:36;;;;;;;12.03;6.03;;;10.50;99.90;;;;;;5041599;28;20726;-78
2021/11/08 12:25:07;;;;;;;14.03;12.60;;;10.70;99.90;;;;;;5041849;28;20265;-79
2021/11/08 12:27:36;;;;;;;15.17;13.63;;;10.80;99.90;;;;;;5044203;28;20399;-79
2021/11/08 12:30:10;;;;;;;17.93;13.40;;;10.70;99.90;;;;;;5033571;28;20266;-79
2021/11/08 12:32:44;;;;;;;13.33;12.10;;;10.60;99.90;;;;;;5042698;28;20652;-76
2021/11/08 12:35:17;;;;;;;15.63;13.10;;;10.50;99.90;;;;;;5044773;28;20199;-77
2021/11/08 12:37:46;;;;;;;13.73;12.37;;;10.20;99.90;;;;;;5038369;28;20200;-79
2021/11/08 12:40:14;;;;;;;13.67;12.30;;;10.00;99.90;;;;;;5041124;28;20660;-79
2021/11/08 12:42:43;;;;;;;14.87;12.40;;;9.70;99.90;;;;;;5041657;28;20708;-79
2021/11/08 12:45:13;;;;;;;13.67;12.50;;;9.70;99.90;;;;;;5038913;28;20727;-77
2021/11/08 12:47:40;;;;;;;15.63;12.90;;;9.60;99.90;;;;;;5034632;28;20200;-79
2021/11/08 12:50:10;;;;;;;13.83;12.60;;;9.50;99.90;;;;;;5038577;28;20219;-78
2021/11/08 12:52:42;;;;;;;13.97;12.77;;;9.50;99.90;;;;;;5042524;28;20223;-79
2021/11/08 12:55:12;;;;;;;14.37;13.17;;;9.50;99.90;;;;;;5034084;28;20206;-79
2021/11/08 12:57:51;;;;;;;14.50;13.30;;;9.40;99.90;;;;;;5041000;28;20254;-76
2021/11/08 13:00:23;;;;;;;18.47;14.77;;;9.50;99.90;;;;;;5050550;28;20197;-78
2021/11/08 13:02:55;;;;;;;15.80;13.17;;;9.50;99.90;;;;;;5039354;28;20266;-79
2021/11/08 13:05:29;;;;;;;14.53;13.33;;;9.50;99.90;;;;;;5039756;28;20194;-79
2021/11/08 13:07:57;;;;;;;15.73;13.90;;;9.50;99.90;;;;;;5034001;28;20253;-79
2021/11/08 13:10:27;;;;;;;13.93;12.57;;;9.60;99.90;;;;;;5044765;28;20761;-79
2021/11/08 13:12:56;;;;;;;16.53;13.33;;;9.60;99.90;;;;;;5045317;28;20219;-79
2021/11/08 13:15:26;;;;;;;14.70;13.20;;;9.50;99.90;;;;;;5041746;28;20283;-78
2021/11/08 13:17:55;;;;;;;14.90;13.47;;;9.60;99.90;;;;;;5031187;28;20200;-79
2021/11/08 13:20:24;;;;;;;14.47;13.10;;;9.60;99.90;;;;;;5045094;28;20253;-78
2021/11/08 13:22:54;;;;;;;15.20;13.73;;;9.60;99.90;;;;;;5043745;28;20298;-79
2021/11/08 13:25:23;;;;;;;14.60;13.40;;;9.50;99.90;;;;;;5044456;28;20191;-78
2021/11/08 13:27:52;;;;;;;14.50;13.40;;;9.60;99.90;;;;;;5044349;28;20200;-78
2021/11/08 13:30:24;;;;;;;14.30;12.97;;;9.60;99.90;;;;;;5035409;28;20228;-78
2021/11/08 13:32:52;;;;;;;14.23;13.03;;;9.60;99.90;;;;;;5049082;28;20239;-78
2021/11/08 13:35:26;;;;;;;15.23;13.53;;;9.60;99.90;;;;;;5043956;28;20192;-78
2021/11/08 13:38:06;;;;;;;14.13;12.97;;;9.70;99.90;;;;;;5030552;28;20202;-78
2021/11/08 13:40:35;;;;;;;15.50;13.87;;;9.70;99.90;;;;;;5044485;28;20192;-79
2021/11/08 13:43:11;;;;;;;19.00;14.40;;;9.70;99.90;;;;;;5056285;28;20492;-79
2021/11/08 13:45:46;;;;;;;15.07;13.67;;;9.90;99.90;;;;;;5043029;28;20676;-78
2021/11/08 13:48:22;;;;;;;14.90;13.40;;;9.90;99.90;;;;;;5041119;28;20186;-78
2021/11/08 13:50:49;;;;;;;14.73;13.57;;;10.00;99.90;;;;;;5044595;28;20220;-78
2021/11/08 13:53:19;;;;;;;16.83;14.17;;;10.00;99.90;;;;;;5042187;28;20215;-79
2021/11/08 13:55:45;;;;;;;14.00;12.90;;;10.00;99.90;;;;;;5041525;28;20196;-78
2021/11/08 13:58:14;;;;;;;14.23;12.83;;;9.90;99.90;;;;;;5044182;28;20208;-78
2021/11/08 14:00:41;;;;;;;15.37;13.83;;;9.90;99.90;;;;;;5043714;28;20199;-79
2021/11/08 14:03:13;;;;;;;14.60;13.30;;;9.80;99.90;;;;;;5035536;28;20233;-78
2021/11/08 14:05:50;;;;;;;22.53;13.80;;;9.80;99.90;;;;;;5038034;28;20212;-79
2021/11/08 14:08:24;;;;;;;12.90;11.90;;;9.70;99.90;;;;;;5036200;28;20195;-78
2021/11/08 14:10:55;;;;;;;15.93;12.70;;;9.60;99.90;;;;;;5040921;28;20200;-78
2021/11/08 14:13:31;;;;;;;12.30;11.40;;;9.50;99.90;;;;;;5043795;28;20684;-78